Pays
Station

 

Conditions  météo  pour  Mount Isa Amo  -  Australie    Australie

  
32 °C
    
 
 

METAR pour Mount Isa Amo :

YBMA 212230Z AUTO 01009KT 9999 // NCD 32/17 Q1011 RF00.0/000.2

 

Voici le bulletin pour Mount Isa Amo - Australie.
 
Le bulletin a été fait il y a 20 minutes, à 22:30 UTC .
Le vent soufflait à la vitesse de 4.6 mètres par seconde de Nord (010°).
 
La température était de 32 °C, avec un point de rosée à 17 °C.
La température ressentie était de 33 °C.
 
La pression atmosphérique était de 1011 hPa.
L'humidité relative était de 40.8%.
 
La visibilité globale était de supérieure à 10 kilomètres.
 

 
 
 

Pays :   A   B   C   D   E   F   G   H   I   J   K   L   M   N   O   P   Q   R   S   T   U   V   W   Y   Z

 

Partenaires :  Info Météo avec Met'info
Météo Marine avec MeteoMarine.net
Infos Site  |  Infos Légales  |  Crédits  |  Confidentialité
Contactez-nous  |  Ajouter aux favoris
© 2013-2019 METAR - Tous droits réservés